sensor_id;sensor_type;location;lat;lon;timestamp;pressure;altitude;pressure_sealevel;temperature
79089;BMP280;68489;50.286;9.452;2023-05-07T00:00:11;97478.47;;;15.20
79089;BMP280;68489;50.286;9.452;2023-05-07T00:02:36;97478.03;;;15.22
79089;BMP280;68489;50.286;9.452;2023-05-07T00:05:03;97482.25;;;15.29
79089;BMP280;68489;50.286;9.452;2023-05-07T00:07:28;97477.56;;;15.23
79089;BMP280;68489;50.286;9.452;2023-05-07T00:09:54;97476.38;;;15.24
79089;BMP280;68489;50.286;9.452;2023-05-07T00:12:19;97473.84;;;15.21
79089;BMP280;68489;50.286;9.452;2023-05-07T00:14:44;97477.56;;;15.23
79089;BMP280;68489;50.286;9.452;2023-05-07T00:17:10;97478.19;;;15.18
79089;BMP280;68489;50.286;9.452;2023-05-07T00:19:35;97475.06;;;15.20
79089;BMP280;68489;50.286;9.452;2023-05-07T00:22:01;97470.56;;;15.11
79089;BMP280;68489;50.286;9.452;2023-05-07T00:24:26;97469.53;;;15.09
79089;BMP280;68489;50.286;9.452;2023-05-07T00:26:51;97466.38;;;15.10
79089;BMP280;68489;50.286;9.452;2023-05-07T00:29:17;97466.38;;;15.10
79089;BMP280;68489;50.286;9.452;2023-05-07T00:31:42;97465.72;;;15.15
79089;BMP280;68489;50.286;9.452;2023-05-07T00:34:08;97472.41;;;15.05
79089;BMP280;68489;50.286;9.452;2023-05-07T00:36:33;97465.84;;;15.06
79089;BMP280;68489;50.286;9.452;2023-05-07T00:38:59;97465.53;;;15.04
79089;BMP280;68489;50.286;9.452;2023-05-07T00:41:25;97470.66;;;15.02
79089;BMP280;68489;50.286;9.452;2023-05-07T00:43:50;97463.91;;;15.07
79089;BMP280;68489;50.286;9.452;2023-05-07T00:46:16;97465.09;;;15.06
79089;BMP280;68489;50.286;9.452;2023-05-07T00:48:42;97455.31;;;15.03
79089;BMP280;68489;50.286;9.452;2023-05-07T00:51:07;97449.31;;;15.08
79089;BMP280;68489;50.286;9.452;2023-05-07T00:53:32;97452.06;;;14.98
79089;BMP280;68489;50.286;9.452;2023-05-07T00:55:58;97450.59;;;14.97
79089;BMP280;68489;50.286;9.452;2023-05-07T00:58:25;97451.63;;;15.00
79089;BMP280;68489;50.286;9.452;2023-05-07T01:00:51;97447.00;;;15.01
79089;BMP280;68489;50.286;9.452;2023-05-07T01:03:16;97449.94;;;15.03
79089;BMP280;68489;50.286;9.452;2023-05-07T01:05:42;97456.50;;;15.02
79089;BMP280;68489;50.286;9.452;2023-05-07T01:08:08;97456.03;;;15.03
79089;BMP280;68489;50.286;9.452;2023-05-07T01:10:34;97459.75;;;15.06
79089;BMP280;68489;50.286;9.452;2023-05-07T01:12:59;97462.88;;;15.04
79089;BMP280;68489;50.286;9.452;2023-05-07T01:15:25;97457.06;;;15.06
79089;BMP280;68489;50.286;9.452;2023-05-07T01:17:50;97443.59;;;15.00
79089;BMP280;68489;50.286;9.452;2023-05-07T01:20:17;97443.38;;;15.04
79089;BMP280;68489;50.286;9.452;2023-05-07T01:22:43;97447.44;;;14.99
79089;BMP280;68489;50.286;9.452;2023-05-07T01:25:08;97437.69;;;14.96
79089;BMP280;68489;50.286;9.452;2023-05-07T01:27:34;97435.00;;;14.96
79089;BMP280;68489;50.286;9.452;2023-05-07T01:30:01;97442.78;;;14.94
79089;BMP280;68489;50.286;9.452;2023-05-07T01:32:37;97432.94;;;14.91
79089;BMP280;68489;50.286;9.452;2023-05-07T01:35:05;97431.03;;;14.91
79089;BMP280;68489;50.286;9.452;2023-05-07T01:37:32;97434.44;;;14.92
79089;BMP280;68489;50.286;9.452;2023-05-07T01:39:57;97425.94;;;14.93
79089;BMP280;68489;50.286;9.452;2023-05-07T01:42:23;97437.31;;;14.88
79089;BMP280;68489;50.286;9.452;2023-05-07T01:44:48;97439.53;;;14.90
79089;BMP280;68489;50.286;9.452;2023-05-07T01:47:14;97430.94;;;14.86
79089;BMP280;68489;50.286;9.452;2023-05-07T01:49:40;97428.72;;;14.84
79089;BMP280;68489;50.286;9.452;2023-05-07T01:52:05;97431.41;;;14.84
79089;BMP280;68489;50.286;9.452;2023-05-07T01:54:31;97427.25;;;14.83
79089;BMP280;68489;50.286;9.452;2023-05-07T01:56:56;97433.69;;;14.77
79089;BMP280;68489;50.286;9.452;2023-05-07T01:59:22;97432.06;;;14.79
79089;BMP280;68489;50.286;9.452;2023-05-07T02:01:47;97428.34;;;14.77
79089;BMP280;68489;50.286;9.452;2023-05-07T02:04:13;97435.53;;;14.70
79089;BMP280;68489;50.286;9.452;2023-05-07T02:06:38;97445.22;;;14.68
79089;BMP280;68489;50.286;9.452;2023-05-07T02:09:03;97442.75;;;14.64
79089;BMP280;68489;50.286;9.452;2023-05-07T02:11:28;97439.97;;;14.59
79089;BMP280;68489;50.286;9.452;2023-05-07T02:13:54;97445.50;;;14.55
79089;BMP280;68489;50.286;9.452;2023-05-07T02:16:19;97442.34;;;14.57
79089;BMP280;68489;50.286;9.452;2023-05-07T02:18:45;97443.81;;;14.58
79089;BMP280;68489;50.286;9.452;2023-05-07T02:21:10;97440.88;;;14.56
79089;BMP280;68489;50.286;9.452;2023-05-07T02:23:35;97431.56;;;14.51
79089;BMP280;68489;50.286;9.452;2023-05-07T02:26:00;97435.91;;;14.49
79089;BMP280;68489;50.286;9.452;2023-05-07T02:28:26;97432.19;;;14.46
79089;BMP280;68489;50.286;9.452;2023-05-07T02:30:51;97432.94;;;14.46
79089;BMP280;68489;50.286;9.452;2023-05-07T02:33:16;97436.47;;;14.53
79089;BMP280;68489;50.286;9.452;2023-05-07T02:35:41;97426.94;;;14.52
79089;BMP280;68489;50.286;9.452;2023-05-07T02:38:07;97442.53;;;14.53
79089;BMP280;68489;50.286;9.452;2023-05-07T02:40:32;97449.47;;;14.60
79089;BMP280;68489;50.286;9.452;2023-05-07T02:42:59;97444.28;;;14.56
79089;BMP280;68489;50.286;9.452;2023-05-07T02:45:24;97449.53;;;14.51
79089;BMP280;68489;50.286;9.452;2023-05-07T02:47:49;97451.22;;;14.48
79089;BMP280;68489;50.286;9.452;2023-05-07T02:50:15;97452.13;;;14.45
79089;BMP280;68489;50.286;9.452;2023-05-07T02:52:40;97455.22;;;14.43
79089;BMP280;68489;50.286;9.452;2023-05-07T02:55:06;97446.59;;;14.49
79089;BMP280;68489;50.286;9.452;2023-05-07T02:57:31;97448.72;;;14.44
79089;BMP280;68489;50.286;9.452;2023-05-07T02:59:57;97449.53;;;14.51
79089;BMP280;68489;50.286;9.452;2023-05-07T03:02:23;97451.94;;;14.49
79089;BMP280;68489;50.286;9.452;2023-05-07T03:04:48;97454.16;;;14.50
79089;BMP280;68489;50.286;9.452;2023-05-07T03:07:13;97444.19;;;14.51
79089;BMP280;68489;50.286;9.452;2023-05-07T03:09:39;97443.63;;;14.46
79089;BMP280;68489;50.286;9.452;2023-05-07T03:12:05;97440.69;;;14.44
79089;BMP280;68489;50.286;9.452;2023-05-07T03:14:30;97439.38;;;14.40
79089;BMP280;68489;50.286;9.452;2023-05-07T03:16:58;97436.69;;;14.40
79089;BMP280;68489;50.286;9.452;2023-05-07T03:19:23;97426.53;;;14.44
79089;BMP280;68489;50.286;9.452;2023-05-07T03:21:49;97444.00;;;14.39
79089;BMP280;68489;50.286;9.452;2023-05-07T03:24:14;97433.72;;;14.38
79089;BMP280;68489;50.286;9.452;2023-05-07T03:26:39;97436.03;;;14.30
79089;BMP280;68489;50.286;9.452;2023-05-07T03:29:05;97428.47;;;14.29
79089;BMP280;68489;50.286;9.452;2023-05-07T03:31:30;97420.88;;;14.27
79089;BMP280;68489;50.286;9.452;2023-05-07T03:33:56;97433.09;;;14.28
79089;BMP280;68489;50.286;9.452;2023-05-07T03:36:23;97436.38;;;14.23
79089;BMP280;68489;50.286;9.452;2023-05-07T03:38:48;97442.00;;;14.25
79089;BMP280;68489;50.286;9.452;2023-05-07T03:41:14;97432.69;;;14.20
79089;BMP280;68489;50.286;9.452;2023-05-07T03:43:39;97435.94;;;14.25
79089;BMP280;68489;50.286;9.452;2023-05-07T03:46:05;97439.81;;;14.24
79089;BMP280;68489;50.286;9.452;2023-05-07T03:48:30;97444.13;;;14.21
79089;BMP280;68489;50.286;9.452;2023-05-07T03:50:57;97442.81;;;14.16
79089;BMP280;68489;50.286;9.452;2023-05-07T03:53:22;97444.84;;;14.22
79089;BMP280;68489;50.286;9.452;2023-05-07T03:55:47;97444.69;;;14.25
79089;BMP280;68489;50.286;9.452;2023-05-07T03:58:13;97441.28;;;14.25
79089;BMP280;68489;50.286;9.452;2023-05-07T04:00:38;97438.47;;;14.19
79089;BMP280;68489;50.286;9.452;2023-05-07T04:03:05;97450.50;;;14.24
79089;BMP280;68489;50.286;9.452;2023-05-07T04:05:30;97457.06;;;14.23
79089;BMP280;68489;50.286;9.452;2023-05-07T04:07:57;97451.72;;;14.13
79089;BMP280;68489;50.286;9.452;2023-05-07T04:10:23;97456.94;;;14.17
79089;BMP280;68489;50.286;9.452;2023-05-07T04:12:48;97453.06;;;14.18
79089;BMP280;68489;50.286;9.452;2023-05-07T04:15:13;97458.31;;;14.12
79089;BMP280;68489;50.286;9.452;2023-05-07T04:17:39;97458.69;;;14.20
79089;BMP280;68489;50.286;9.452;2023-05-07T04:20:08;97458.59;;;14.14
79089;BMP280;68489;50.286;9.452;2023-05-07T04:22:33;97454.81;;;14.21
79089;BMP280;68489;50.286;9.452;2023-05-07T04:24:59;97456.19;;;14.16
79089;BMP280;68489;50.286;9.452;2023-05-07T04:27:25;97454.50;;;14.19
79089;BMP280;68489;50.286;9.452;2023-05-07T04:29:51;97459.44;;;14.20
79089;BMP280;68489;50.286;9.452;2023-05-07T04:32:16;97452.25;;;14.27
79089;BMP280;68489;50.286;9.452;2023-05-07T04:34:42;97450.66;;;14.20
79089;BMP280;68489;50.286;9.452;2023-05-07T04:37:08;97446.00;;;14.30
79089;BMP280;68489;50.286;9.452;2023-05-07T04:39:33;97442.00;;;14.25
79089;BMP280;68489;50.286;9.452;2023-05-07T04:42:00;97438.75;;;14.21
79089;BMP280;68489;50.286;9.452;2023-05-07T04:44:25;97433.13;;;14.19
79089;BMP280;68489;50.286;9.452;2023-05-07T04:46:51;97438.38;;;14.13
79089;BMP280;68489;50.286;9.452;2023-05-07T04:49:16;97434.78;;;14.16
79089;BMP280;68489;50.286;9.452;2023-05-07T04:51:41;97442.25;;;14.12
79089;BMP280;68489;50.286;9.452;2023-05-07T04:54:08;97448.47;;;14.18
79089;BMP280;68489;50.286;9.452;2023-05-07T04:56:33;97446.69;;;14.15
79089;BMP280;68489;50.286;9.452;2023-05-07T04:58:58;97459.16;;;14.18
79089;BMP280;68489;50.286;9.452;2023-05-07T05:01:23;97465.88;;;14.14
79089;BMP280;68489;50.286;9.452;2023-05-07T05:03:49;97456.19;;;14.16
79089;BMP280;68489;50.286;9.452;2023-05-07T05:06:14;97465.81;;;14.23
79089;BMP280;68489;50.286;9.452;2023-05-07T05:08:39;97479.47;;;14.25
79089;BMP280;68489;50.286;9.452;2023-05-07T05:11:05;97476.22;;;14.21
79089;BMP280;68489;50.286;9.452;2023-05-07T05:13:30;97482.25;;;14.31
79089;BMP280;68489;50.286;9.452;2023-05-07T05:15:55;97489.47;;;14.39
79089;BMP280;68489;50.286;9.452;2023-05-07T05:18:21;97488.06;;;14.44
79089;BMP280;68489;50.286;9.452;2023-05-07T05:20:46;97489.09;;;14.46
79089;BMP280;68489;50.286;9.452;2023-05-07T05:23:11;97482.59;;;14.48
79089;BMP280;68489;50.286;9.452;2023-05-07T05:25:37;97483.69;;;14.56
79089;BMP280;68489;50.286;9.452;2023-05-07T05:28:04;97482.25;;;14.69
79089;BMP280;68489;50.286;9.452;2023-05-07T05:30:29;97486.88;;;14.69
79089;BMP280;68489;50.286;9.452;2023-05-07T05:32:54;97491.84;;;14.76
79089;BMP280;68489;50.286;9.452;2023-05-07T05:35:20;97499.44;;;14.78
79089;BMP280;68489;50.286;9.452;2023-05-07T05:37:45;97500.91;;;14.79
79089;BMP280;68489;50.286;9.452;2023-05-07T05:40:10;97491.59;;;14.89
79089;BMP280;68489;50.286;9.452;2023-05-07T05:42:36;97494.47;;;15.00
79089;BMP280;68489;50.286;9.452;2023-05-07T05:45:01;97494.28;;;14.89
79089;BMP280;68489;50.286;9.452;2023-05-07T05:47:26;97494.00;;;15.02
79089;BMP280;68489;50.286;9.452;2023-05-07T05:49:52;97501.47;;;14.97
79089;BMP280;68489;50.286;9.452;2023-05-07T05:52:17;97498.16;;;15.03
79089;BMP280;68489;50.286;9.452;2023-05-07T05:54:42;97499.44;;;15.07
79089;BMP280;68489;50.286;9.452;2023-05-07T05:57:08;97502.03;;;15.02
79089;BMP280;68489;50.286;9.452;2023-05-07T05:59:33;97496.13;;;15.12
79089;BMP280;68489;50.286;9.452;2023-05-07T06:01:58;97488.00;;;15.07
79089;BMP280;68489;50.286;9.452;2023-05-07T06:04:24;97488.75;;;15.07
79089;BMP280;68489;50.286;9.452;2023-05-07T06:06:49;97493.34;;;15.07
79089;BMP280;68489;50.286;9.452;2023-05-07T06:09:14;97498.50;;;15.10
79089;BMP280;68489;50.286;9.452;2023-05-07T06:11:39;97497.16;;;15.00
79089;BMP280;68489;50.286;9.452;2023-05-07T06:14:06;97509.44;;;15.07
79089;BMP280;68489;50.286;9.452;2023-05-07T06:16:31;97508.50;;;15.10
79089;BMP280;68489;50.286;9.452;2023-05-07T06:18:56;97516.22;;;14.93
79089;BMP280;68489;50.286;9.452;2023-05-07T06:21:21;97521.25;;;15.00
79089;BMP280;68489;50.286;9.452;2023-05-07T06:23:47;97516.81;;;15.12
79089;BMP280;68489;50.286;9.452;2023-05-07T06:26:12;97519.06;;;15.13
79089;BMP280;68489;50.286;9.452;2023-05-07T06:28:37;97527.72;;;15.23
79089;BMP280;68489;50.286;9.452;2023-05-07T06:31:16;97533.25;;;15.34
79089;BMP280;68489;50.286;9.452;2023-05-07T06:33:41;97536.47;;;15.53
79089;BMP280;68489;50.286;9.452;2023-05-07T06:36:07;97542.94;;;15.61
79089;BMP280;68489;50.286;9.452;2023-05-07T06:38:32;97535.53;;;15.56
79089;BMP280;68489;50.286;9.452;2023-05-07T06:40:57;97539.41;;;15.70
79089;BMP280;68489;50.286;9.452;2023-05-07T06:43:23;97541.69;;;15.77
79089;BMP280;68489;50.286;9.452;2023-05-07T06:45:48;97544.03;;;15.69
79089;BMP280;68489;50.286;9.452;2023-05-07T06:48:13;97546.59;;;15.78
79089;BMP280;68489;50.286;9.452;2023-05-07T06:50:38;97550.69;;;15.74
79089;BMP280;68489;50.286;9.452;2023-05-07T06:53:04;97543.16;;;15.78
79089;BMP280;68489;50.286;9.452;2023-05-07T06:55:29;97551.38;;;15.89
79089;BMP280;68489;50.286;9.452;2023-05-07T06:57:54;97550.59;;;16.03
79089;BMP280;68489;50.286;9.452;2023-05-07T07:00:20;97553.84;;;16.08
79089;BMP280;68489;50.286;9.452;2023-05-07T07:02:45;97550.13;;;16.25
79089;BMP280;68489;50.286;9.452;2023-05-07T07:05:10;97548.13;;;16.20
79089;BMP280;68489;50.286;9.452;2023-05-07T07:07:35;97548.00;;;16.50
79089;BMP280;68489;50.286;9.452;2023-05-07T07:10:01;97544.16;;;16.77
79089;BMP280;68489;50.286;9.452;2023-05-07T07:12:27;97538.50;;;17.01
79089;BMP280;68489;50.286;9.452;2023-05-07T07:14:53;97546.69;;;17.12
79089;BMP280;68489;50.286;9.452;2023-05-07T07:17:19;97544.50;;;17.16
79089;BMP280;68489;50.286;9.452;2023-05-07T07:19:44;97538.53;;;17.32
79089;BMP280;68489;50.286;9.452;2023-05-07T07:22:09;97548.41;;;17.15
79089;BMP280;68489;50.286;9.452;2023-05-07T07:24:35;97548.97;;;17.25
79089;BMP280;68489;50.286;9.452;2023-05-07T07:27:00;97551.84;;;17.16
79089;BMP280;68489;50.286;9.452;2023-05-07T07:29:25;97546.22;;;17.14
79089;BMP280;68489;50.286;9.452;2023-05-07T07:31:51;97551.19;;;17.26
79089;BMP280;68489;50.286;9.452;2023-05-07T07:34:16;97554.53;;;17.16
79089;BMP280;68489;50.286;9.452;2023-05-07T07:37:31;97543.53;;;17.19
79089;BMP280;68489;50.286;9.452;2023-05-07T07:39:56;97543.88;;;17.01
79089;BMP280;68489;50.286;9.452;2023-05-07T07:42:21;97542.56;;;16.91
79089;BMP280;68489;50.286;9.452;2023-05-07T07:44:47;97546.66;;;16.86
79089;BMP280;68489;50.286;9.452;2023-05-07T07:47:12;97556.56;;;16.74
79089;BMP280;68489;50.286;9.452;2023-05-07T07:49:38;97549.25;;;16.75
79089;BMP280;68489;50.286;9.452;2023-05-07T07:52:03;97554.22;;;16.82
79089;BMP280;68489;50.286;9.452;2023-05-07T07:54:28;97553.72;;;16.83
79089;BMP280;68489;50.286;9.452;2023-05-07T07:56:57;97556.75;;;16.91
79089;BMP280;68489;50.286;9.452;2023-05-07T07:59:22;97557.44;;;17.12
79089;BMP280;68489;50.286;9.452;2023-05-07T08:01:48;97557.75;;;17.25
79089;BMP280;68489;50.286;9.452;2023-05-07T08:04:15;97563.56;;;17.50
79089;BMP280;68489;50.286;9.452;2023-05-07T08:06:40;97564.50;;;17.73
79089;BMP280;68489;50.286;9.452;2023-05-07T08:09:05;97572.63;;;17.84
79089;BMP280;68489;50.286;9.452;2023-05-07T08:11:31;97571.25;;;18.05
79089;BMP280;68489;50.286;9.452;2023-05-07T08:13:56;97578.91;;;18.12
79089;BMP280;68489;50.286;9.452;2023-05-07T08:16:21;97573.31;;;18.22
79089;BMP280;68489;50.286;9.452;2023-05-07T08:18:47;97564.28;;;18.30
79089;BMP280;68489;50.286;9.452;2023-05-07T08:21:12;97569.34;;;18.11
79089;BMP280;68489;50.286;9.452;2023-05-07T08:23:37;97567.75;;;18.42
79089;BMP280;68489;50.286;9.452;2023-05-07T08:26:02;97562.06;;;18.29
79089;BMP280;68489;50.286;9.452;2023-05-07T08:28:28;97565.84;;;18.59
79089;BMP280;68489;50.286;9.452;2023-05-07T08:30:53;97564.91;;;18.90
79089;BMP280;68489;50.286;9.452;2023-05-07T08:33:18;97562.22;;;19.35
79089;BMP280;68489;50.286;9.452;2023-05-07T08:35:43;97566.84;;;19.68
79089;BMP280;68489;50.286;9.452;2023-05-07T08:38:09;97566.34;;;19.87
79089;BMP280;68489;50.286;9.452;2023-05-07T08:40:37;97569.19;;;20.05
79089;BMP280;68489;50.286;9.452;2023-05-07T08:43:05;97569.56;;;20.32
79089;BMP280;68489;50.286;9.452;2023-05-07T08:45:32;97570.91;;;20.61
79089;BMP280;68489;50.286;9.452;2023-05-07T08:47:59;97586.88;;;20.59
79089;BMP280;68489;50.286;9.452;2023-05-07T08:50:26;97579.69;;;20.73
79089;BMP280;68489;50.286;9.452;2023-05-07T08:52:51;97574.09;;;20.59
79089;BMP280;68489;50.286;9.452;2023-05-07T08:55:17;97581.34;;;20.81
79089;BMP280;68489;50.286;9.452;2023-05-07T08:57:43;97577.19;;;21.10
79089;BMP280;68489;50.286;9.452;2023-05-07T09:00:09;97577.53;;;21.25
79089;BMP280;68489;50.286;9.452;2023-05-07T09:02:35;97581.41;;;21.06
79089;BMP280;68489;50.286;9.452;2023-05-07T09:05:01;97577.63;;;20.90
79089;BMP280;68489;50.286;9.452;2023-05-07T09:07:26;97589.84;;;21.27
79089;BMP280;68489;50.286;9.452;2023-05-07T09:09:52;97588.50;;;21.09
79089;BMP280;68489;50.286;9.452;2023-05-07T09:12:18;97588.13;;;21.23
79089;BMP280;68489;50.286;9.452;2023-05-07T09:14:44;97584.66;;;21.53
79089;BMP280;68489;50.286;9.452;2023-05-07T09:17:09;97578.09;;;21.73
79089;BMP280;68489;50.286;9.452;2023-05-07T09:19:34;97581.22;;;22.20
79089;BMP280;68489;50.286;9.452;2023-05-07T09:22:05;97570.50;;;22.65
79089;BMP280;68489;50.286;9.452;2023-05-07T09:24:32;97570.31;;;23.22
79089;BMP280;68489;50.286;9.452;2023-05-07T09:27:01;97571.88;;;23.83
79089;BMP280;68489;50.286;9.452;2023-05-07T09:29:27;97564.50;;;24.18
79089;BMP280;68489;50.286;9.452;2023-05-07T09:32:04;97560.50;;;24.40
79089;BMP280;68489;50.286;9.452;2023-05-07T09:34:30;97565.53;;;24.49
79089;BMP280;68489;50.286;9.452;2023-05-07T09:36:56;97564.72;;;24.83
79089;BMP280;68489;50.286;9.452;2023-05-07T09:39:23;97564.59;;;24.67
79089;BMP280;68489;50.286;9.452;2023-05-07T09:41:49;97561.72;;;25.22
79089;BMP280;68489;50.286;9.452;2023-05-07T09:44:14;97560.31;;;25.29
79089;BMP280;68489;50.286;9.452;2023-05-07T09:46:42;97561.50;;;25.92
79089;BMP280;68489;50.286;9.452;2023-05-07T09:49:09;97559.78;;;26.56
79089;BMP280;68489;50.286;9.452;2023-05-07T09:51:47;97566.09;;;25.25
79089;BMP280;68489;50.286;9.452;2023-05-07T09:54:13;97559.59;;;26.39
79089;BMP280;68489;50.286;9.452;2023-05-07T09:56:39;97546.34;;;26.43
79089;BMP280;68489;50.286;9.452;2023-05-07T09:59:06;97556.47;;;25.60
79089;BMP280;68489;50.286;9.452;2023-05-07T10:01:32;97558.97;;;26.02
79089;BMP280;68489;50.286;9.452;2023-05-07T10:03:58;97561.22;;;26.27
79089;BMP280;68489;50.286;9.452;2023-05-07T10:06:25;97549.25;;;26.68
79089;BMP280;68489;50.286;9.452;2023-05-07T10:08:51;97543.91;;;27.08
79089;BMP280;68489;50.286;9.452;2023-05-07T10:11:17;97549.38;;;27.08
79089;BMP280;68489;50.286;9.452;2023-05-07T10:13:43;97543.88;;;27.23
79089;BMP280;68489;50.286;9.452;2023-05-07T10:16:08;97541.78;;;26.84
79089;BMP280;68489;50.286;9.452;2023-05-07T10:18:33;97544.34;;;26.51
79089;BMP280;68489;50.286;9.452;2023-05-07T10:21:21;97537.81;;;26.54
79089;BMP280;68489;50.286;9.452;2023-05-07T10:23:50;97536.41;;;27.24
79089;BMP280;68489;50.286;9.452;2023-05-07T10:26:17;97550.50;;;26.82
79089;BMP280;68489;50.286;9.452;2023-05-07T10:28:46;97555.97;;;26.36
79089;BMP280;68489;50.286;9.452;2023-05-07T10:33:57;97544.44;;;26.00
79089;BMP280;68489;50.286;9.452;2023-05-07T10:36:24;97550.56;;;25.77
79089;BMP280;68489;50.286;9.452;2023-05-07T10:38:50;97548.84;;;26.18
79089;BMP280;68489;50.286;9.452;2023-05-07T10:41:16;97560.00;;;25.76
79089;BMP280;68489;50.286;9.452;2023-05-07T10:43:44;97556.84;;;26.08
79089;BMP280;68489;50.286;9.452;2023-05-07T10:46:17;97548.78;;;27.25
79089;BMP280;68489;50.286;9.452;2023-05-07T10:51:26;97552.16;;;26.62
79089;BMP280;68489;50.286;9.452;2023-05-07T10:56:38;97549.59;;;27.58
79089;BMP280;68489;50.286;9.452;2023-05-07T11:02:02;97554.22;;;28.13
79089;BMP280;68489;50.286;9.452;2023-05-07T11:04:28;97545.19;;;27.95
79089;BMP280;68489;50.286;9.452;2023-05-07T11:15:05;97557.59;;;26.24
79089;BMP280;68489;50.286;9.452;2023-05-07T11:17:32;97546.84;;;27.02
79089;BMP280;68489;50.286;9.452;2023-05-07T11:20:00;97540.50;;;26.92
79089;BMP280;68489;50.286;9.452;2023-05-07T11:22:36;97552.34;;;26.34
79089;BMP280;68489;50.286;9.452;2023-05-07T11:25:05;97551.41;;;26.77
79089;BMP280;68489;50.286;9.452;2023-05-07T11:27:31;97554.69;;;26.22
79089;BMP280;68489;50.286;9.452;2023-05-07T11:29:57;97545.81;;;26.44
79089;BMP280;68489;50.286;9.452;2023-05-07T11:32:30;97544.34;;;26.36
79089;BMP280;68489;50.286;9.452;2023-05-07T11:34:57;97543.78;;;26.30
79089;BMP280;68489;50.286;9.452;2023-05-07T11:37:24;97540.16;;;26.42
79089;BMP280;68489;50.286;9.452;2023-05-07T11:39:49;97545.22;;;26.15
79089;BMP280;68489;50.286;9.452;2023-05-07T11:42:29;97534.69;;;26.19
79089;BMP280;68489;50.286;9.452;2023-05-07T11:44:55;97546.59;;;25.42
79089;BMP280;68489;50.286;9.452;2023-05-07T11:47:20;97529.63;;;26.39
79089;BMP280;68489;50.286;9.452;2023-05-07T11:49:47;97547.78;;;26.59
79089;BMP280;68489;50.286;9.452;2023-05-07T11:52:13;97546.88;;;26.72
79089;BMP280;68489;50.286;9.452;2023-05-07T11:54:39;97536.91;;;27.37
79089;BMP280;68489;50.286;9.452;2023-05-07T11:57:04;97545.69;;;28.93
79089;BMP280;68489;50.286;9.452;2023-05-07T11:59:38;97547.22;;;30.77
79089;BMP280;68489;50.286;9.452;2023-05-07T12:02:03;97543.44;;;31.40
79089;BMP280;68489;50.286;9.452;2023-05-07T12:04:30;97549.56;;;30.15
79089;BMP280;68489;50.286;9.452;2023-05-07T12:06:55;97540.13;;;31.03
79089;BMP280;68489;50.286;9.452;2023-05-07T12:09:20;97539.09;;;29.94
79089;BMP280;68489;50.286;9.452;2023-05-07T12:11:46;97536.16;;;30.19
79089;BMP280;68489;50.286;9.452;2023-05-07T12:14:11;97534.34;;;30.41
79089;BMP280;68489;50.286;9.452;2023-05-07T12:16:39;97533.91;;;30.44
79089;BMP280;68489;50.286;9.452;2023-05-07T12:19:05;97531.94;;;30.74
79089;BMP280;68489;50.286;9.452;2023-05-07T12:21:31;97540.72;;;30.63
79089;BMP280;68489;50.286;9.452;2023-05-07T12:23:56;97533.75;;;31.19
79089;BMP280;68489;50.286;9.452;2023-05-07T12:26:22;97532.69;;;31.53
79089;BMP280;68489;50.286;9.452;2023-05-07T12:28:47;97522.91;;;31.72
79089;BMP280;68489;50.286;9.452;2023-05-07T12:31:13;97523.44;;;31.80
79089;BMP280;68489;50.286;9.452;2023-05-07T12:33:39;97526.31;;;29.70
79089;BMP280;68489;50.286;9.452;2023-05-07T12:36:06;97530.31;;;30.51
79089;BMP280;68489;50.286;9.452;2023-05-07T12:38:39;97524.00;;;31.47
79089;BMP280;68489;50.286;9.452;2023-05-07T12:41:07;97519.06;;;32.17
79089;BMP280;68489;50.286;9.452;2023-05-07T12:43:33;97523.47;;;32.87
79089;BMP280;68489;50.286;9.452;2023-05-07T12:46:04;97515.81;;;33.41
79089;BMP280;68489;50.286;9.452;2023-05-07T12:48:30;97517.22;;;34.38
79089;BMP280;68489;50.286;9.452;2023-05-07T12:50:57;97520.47;;;33.50
79089;BMP280;68489;50.286;9.452;2023-05-07T12:53:25;97524.53;;;34.70
79089;BMP280;68489;50.286;9.452;2023-05-07T12:55:55;97505.22;;;34.70
79089;BMP280;68489;50.286;9.452;2023-05-07T12:58:31;97511.44;;;34.45
79089;BMP280;68489;50.286;9.452;2023-05-07T13:00:59;97518.13;;;35.18
79089;BMP280;68489;50.286;9.452;2023-05-07T13:03:27;97515.44;;;35.07
79089;BMP280;68489;50.286;9.452;2023-05-07T13:05:54;97516.72;;;35.45
79089;BMP280;68489;50.286;9.452;2023-05-07T13:08:40;97505.34;;;36.52
79089;BMP280;68489;50.286;9.452;2023-05-07T13:11:08;97503.91;;;35.51
79089;BMP280;68489;50.286;9.452;2023-05-07T13:13:35;97514.13;;;34.82
79089;BMP280;68489;50.286;9.452;2023-05-07T13:16:01;97506.38;;;34.54
79089;BMP280;68489;50.286;9.452;2023-05-07T13:18:30;97506.94;;;32.87
79089;BMP280;68489;50.286;9.452;2023-05-07T13:20:56;97512.94;;;31.67
79089;BMP280;68489;50.286;9.452;2023-05-07T13:23:21;97514.59;;;33.79
79089;BMP280;68489;50.286;9.452;2023-05-07T13:25:47;97498.72;;;34.91
79089;BMP280;68489;50.286;9.452;2023-05-07T13:28:13;97506.78;;;32.73
79089;BMP280;68489;50.286;9.452;2023-05-07T13:30:39;97500.78;;;31.19
79089;BMP280;68489;50.286;9.452;2023-05-07T13:33:05;97510.88;;;29.74
79089;BMP280;68489;50.286;9.452;2023-05-07T13:35:30;97502.00;;;29.56
79089;BMP280;68489;50.286;9.452;2023-05-07T13:37:56;97506.13;;;28.52
79089;BMP280;68489;50.286;9.452;2023-05-07T13:40:22;97498.16;;;27.31
79089;BMP280;68489;50.286;9.452;2023-05-07T13:42:48;97493.97;;;26.67
79089;BMP280;68489;50.286;9.452;2023-05-07T13:45:13;97496.63;;;25.76
79089;BMP280;68489;50.286;9.452;2023-05-07T13:47:40;97493.34;;;25.70
79089;BMP280;68489;50.286;9.452;2023-05-07T13:50:06;97491.56;;;25.36
79089;BMP280;68489;50.286;9.452;2023-05-07T13:52:32;97487.06;;;25.02
79089;BMP280;68489;50.286;9.452;2023-05-07T13:54:57;97487.75;;;24.46
79089;BMP280;68489;50.286;9.452;2023-05-07T13:57:23;97499.06;;;24.37
79089;BMP280;68489;50.286;9.452;2023-05-07T13:59:48;97493.88;;;24.18
79089;BMP280;68489;50.286;9.452;2023-05-07T14:02:14;97499.75;;;23.75
79089;BMP280;68489;50.286;9.452;2023-05-07T14:04:40;97502.28;;;23.94
79089;BMP280;68489;50.286;9.452;2023-05-07T14:07:05;97504.25;;;24.27
79089;BMP280;68489;50.286;9.452;2023-05-07T14:09:30;97496.38;;;24.86
79089;BMP280;68489;50.286;9.452;2023-05-07T14:11:55;97496.34;;;24.79
79089;BMP280;68489;50.286;9.452;2023-05-07T14:14:21;97492.44;;;24.66
79089;BMP280;68489;50.286;9.452;2023-05-07T14:16:46;97499.72;;;24.43
79089;BMP280;68489;50.286;9.452;2023-05-07T14:19:12;97499.28;;;24.39
79089;BMP280;68489;50.286;9.452;2023-05-07T14:21:37;97505.72;;;24.28